createdAt,value
2022-10-22T00:02:15.997Z,100451.34
2022-10-22T00:04:45.845Z,100443.63
2022-10-22T00:07:15.833Z,100432.50
2022-10-22T00:09:45.605Z,100431.63
2022-10-22T00:12:18.697Z,100423.06
2022-10-22T00:14:48.907Z,100441.94
2022-10-22T00:17:18.670Z,100441.09
2022-10-22T00:19:48.395Z,100432.53
2022-10-22T00:22:18.167Z,100455.63
2022-10-22T00:24:47.881Z,100451.31
2022-10-22T00:27:20.274Z,100399.97
2022-10-22T00:29:50.432Z,100459.03
2022-10-22T00:32:20.241Z,100457.34
2022-10-22T00:34:50.027Z,100455.63
2022-10-22T00:37:19.843Z,100465.03
2022-10-22T00:39:49.580Z,100463.31
2022-10-22T00:42:26.192Z,100466.72
2022-10-22T00:45:19.384Z,100462.47
2022-10-22T00:47:54.477Z,100456.47
2022-10-22T00:50:29.210Z,100453.03
2022-10-22T00:53:00.510Z,100435.94
2022-10-22T00:55:31.504Z,100453.91
2022-10-22T00:58:04.658Z,100481.31
2022-10-22T01:00:34.588Z,100471.03
2022-10-22T01:03:04.584Z,100460.75
2022-10-22T01:05:42.475Z,100426.47
2022-10-22T01:08:24.651Z,100477.84
2022-10-22T01:11:06.415Z,100478.69
2022-10-22T01:13:49.805Z,100480.38
2022-10-22T01:16:27.154Z,100469.25
2022-10-22T01:19:07.184Z,100488.09
2022-10-22T01:21:43.414Z,100476.97
2022-10-22T01:24:38.381Z,100474.38
2022-10-22T01:27:32.643Z,100441.00
2022-10-22T01:30:08.124Z,100434.16
2022-10-22T01:32:44.152Z,100456.44
2022-10-22T01:35:17.060Z,100463.25
2022-10-22T01:37:51.465Z,100470.97
2022-10-22T01:40:22.204Z,100426.47
2022-10-22T01:43:00.210Z,100443.56
2022-10-22T01:45:37.118Z,100477.81
2022-10-22T01:48:18.237Z,100471.81
2022-10-22T01:50:58.872Z,100476.06
2022-10-22T01:53:37.275Z,100472.63
2022-10-22T01:56:19.568Z,100474.38
2022-10-22T01:58:58.582Z,100459.81
2022-10-22T02:01:38.219Z,100446.97
2022-10-22T02:04:15.038Z,100445.28
2022-10-22T02:06:47.068Z,100469.28
2022-10-22T02:09:20.706Z,100453.88
2022-10-22T02:11:51.903Z,100471.00
2022-10-22T02:14:23.081Z,100473.53
2022-10-22T02:16:55.639Z,100458.13
2022-10-22T02:19:28.949Z,100475.25
2022-10-22T02:21:58.878Z,100481.22
2022-10-22T02:24:28.913Z,100474.41
2022-10-22T02:27:07.575Z,100476.97
2022-10-22T02:29:42.074Z,100473.53
2022-10-22T02:32:18.543Z,100469.28
2022-10-22T02:34:51.670Z,100457.31
2022-10-22T02:37:21.714Z,100460.72
2022-10-22T02:39:52.378Z,100457.31
2022-10-22T02:42:22.313Z,100460.75
2022-10-22T02:44:52.120Z,100456.44
2022-10-22T02:47:24.556Z,100453.03
2022-10-22T02:49:54.390Z,100453.06
2022-10-22T02:52:24.137Z,100455.63
2022-10-22T02:54:53.959Z,100464.16
2022-10-22T02:57:23.761Z,100472.72
2022-10-22T02:59:53.540Z,100472.72
2022-10-22T03:02:26.056Z,100482.97
2022-10-22T03:04:55.755Z,100480.41
2022-10-22T03:07:25.552Z,100468.44
2022-10-22T03:09:55.331Z,100475.28
2022-10-22T03:12:25.164Z,100427.31
2022-10-22T03:14:54.883Z,100488.06
2022-10-22T03:17:27.285Z,100482.06
2022-10-22T03:19:57.017Z,100473.50
2022-10-22T03:22:30.434Z,100420.44
2022-10-22T03:25:03.415Z,100461.56
2022-10-22T03:27:33.590Z,100482.97
2022-10-22T03:30:04.403Z,100488.09
2022-10-22T03:32:36.879Z,100474.41
2022-10-22T03:35:07.179Z,100486.41
2022-10-22T03:37:39.150Z,100484.69
2022-10-22T03:40:11.640Z,100474.44
2022-10-22T03:42:42.454Z,100470.16
2022-10-22T03:45:13.521Z,100479.56
2022-10-22T03:47:45.993Z,100482.13
2022-10-22T03:50:15.764Z,100495.84
2022-10-22T03:52:45.655Z,100494.97
2022-10-22T03:55:15.422Z,100490.69
2022-10-22T03:57:45.202Z,100475.25
2022-10-22T04:00:15.406Z,100512.97
2022-10-22T04:02:47.764Z,100512.97
2022-10-22T04:05:17.750Z,100517.22
2022-10-22T04:07:47.667Z,100510.38
2022-10-22T04:10:17.626Z,100510.38
2022-10-22T04:12:50.145Z,100526.66
2022-10-22T04:15:20.581Z,100480.41
2022-10-22T04:17:52.920Z,100501.81
2022-10-22T04:20:22.681Z,100523.22
2022-10-22T04:22:52.494Z,100524.06
2022-10-22T04:25:22.298Z,100519.78
2022-10-22T04:27:52.079Z,100529.19
2022-10-22T04:30:21.811Z,100533.44
2022-10-22T04:32:54.202Z,100529.19
2022-10-22T04:37:53.697Z,100527.44
2022-10-22T04:40:23.474Z,100500.88
2022-10-22T04:42:53.215Z,100530.81
2022-10-22T04:45:22.953Z,100537.59
2022-10-22T04:47:55.391Z,100517.84
2022-10-22T04:50:25.155Z,100516.19
2022-10-22T04:52:55.652Z,100533.31
2022-10-22T04:55:25.405Z,100527.31
2022-10-22T04:57:55.174Z,100529.09
2022-10-22T05:00:24.902Z,100519.69
2022-10-22T05:02:57.237Z,100533.41
2022-10-22T05:05:27.074Z,100523.97
2022-10-22T05:07:56.815Z,100516.31
2022-10-22T05:10:26.664Z,100513.75
2022-10-22T05:12:56.432Z,100524.88
2022-10-22T05:15:26.184Z,100498.28
2022-10-22T05:17:58.543Z,100526.56
2022-10-22T05:20:28.345Z,100529.09
2022-10-22T05:22:58.119Z,100529.06
2022-10-22T05:25:27.935Z,100534.19
2022-10-22T05:28:00.254Z,100524.81
2022-10-22T05:30:30.277Z,100530.81
2022-10-22T05:33:02.650Z,100530.78
2022-10-22T05:35:32.519Z,100528.19
2022-10-22T05:38:02.379Z,100487.06
2022-10-22T05:40:32.126Z,100521.34
2022-10-22T05:43:02.120Z,100529.94
2022-10-22T05:45:31.869Z,100536.78
2022-10-22T05:48:04.237Z,100546.22
2022-10-22T05:50:34.357Z,100547.97
2022-10-22T05:53:04.274Z,100546.25
2022-10-22T05:55:37.575Z,100546.25
2022-10-22T05:58:07.943Z,100550.53
2022-10-22T06:00:37.717Z,100531.66
2022-10-22T06:03:10.219Z,100557.34
2022-10-22T06:05:40.848Z,100546.19
2022-10-22T06:08:18.266Z,100535.94
2022-10-22T06:10:48.983Z,100549.59
2022-10-22T06:13:18.838Z,100559.03
2022-10-22T06:15:48.604Z,100566.75
2022-10-22T06:18:20.990Z,100566.78
2022-10-22T06:20:50.739Z,100581.31
2022-10-22T06:23:20.530Z,100521.31
2022-10-22T06:25:58.956Z,100536.75
2022-10-22T06:28:29.110Z,100573.56
2022-10-22T06:31:00.642Z,100602.69
2022-10-22T06:33:37.218Z,100600.97
2022-10-22T06:36:14.273Z,100600.09
2022-10-22T06:38:45.824Z,100616.34
2022-10-22T06:41:18.851Z,100609.44
2022-10-22T06:43:49.554Z,100612.91
2022-10-22T06:46:22.234Z,100608.59
2022-10-22T06:48:57.320Z,100589.75
2022-10-22T06:51:29.688Z,100641.13
2022-10-22T06:54:00.814Z,100617.13
2022-10-22T06:56:32.009Z,100627.44
2022-10-22T06:59:02.820Z,100647.19
2022-10-22T07:01:36.756Z,100635.25
2022-10-22T07:04:09.640Z,100639.50
2022-10-22T07:06:40.765Z,100624.09
2022-10-22T07:09:10.648Z,100636.09
2022-10-22T07:11:44.320Z,100635.19
2022-10-22T07:14:16.020Z,100616.38
2022-10-22T07:16:46.933Z,100638.63
2022-10-22T07:19:20.383Z,100645.53
2022-10-22T07:21:50.244Z,100642.09
2022-10-22T07:24:21.095Z,100650.72
2022-10-22T07:26:51.379Z,100657.63
2022-10-22T07:29:21.273Z,100655.06
2022-10-22T07:31:52.079Z,100663.69
2022-10-22T07:34:25.493Z,100672.28
2022-10-22T07:36:57.208Z,100670.53
2022-10-22T07:39:28.930Z,100670.50
2022-10-22T07:41:59.720Z,100679.09
2022-10-22T07:44:29.660Z,100679.09
2022-10-22T07:47:00.491Z,100651.63
2022-10-22T07:49:33.877Z,100626.72
2022-10-22T07:52:04.714Z,100679.91
2022-10-22T07:54:35.576Z,100679.09
2022-10-22T07:57:06.684Z,100665.34
2022-10-22T07:59:37.531Z,100642.19
2022-10-22T08:02:07.519Z,100675.69
2022-10-22T08:04:41.008Z,100678.25
2022-10-22T08:07:11.836Z,100673.94
2022-10-22T08:09:41.638Z,100687.66
2022-10-22T08:12:11.386Z,100695.41
2022-10-22T08:14:42.223Z,100700.56
2022-10-22T08:17:13.231Z,100697.97
2022-10-22T08:19:45.675Z,100694.56
2022-10-22T08:22:16.675Z,100681.72
2022-10-22T08:24:46.584Z,100693.72
2022-10-22T08:27:16.599Z,100690.31
2022-10-22T08:29:47.647Z,100698.91
2022-10-22T08:32:17.535Z,100702.34
2022-10-22T08:34:51.002Z,100701.50
2022-10-22T08:37:21.818Z,100695.50
2022-10-22T08:39:52.662Z,100675.78
2022-10-22T08:42:39.641Z,100710.09
2022-10-22T08:45:16.490Z,100701.50
2022-10-22T08:48:08.575Z,100708.38
2022-10-22T08:50:47.001Z,100709.19
2022-10-22T08:53:20.403Z,100703.19
2022-10-22T08:55:55.468Z,100710.03
2022-10-22T08:58:31.011Z,100708.31
2022-10-22T09:01:03.572Z,100715.97
2022-10-22T09:03:42.429Z,100711.69
2022-10-22T09:06:18.726Z,100696.25
2022-10-22T09:08:50.542Z,100727.97
2022-10-22T09:11:28.980Z,100716.78
2022-10-22T09:13:59.972Z,100731.34
2022-10-22T09:16:39.532Z,100719.31
2022-10-22T09:19:20.808Z,100729.53
2022-10-22T09:22:03.902Z,100723.53
2022-10-22T09:24:39.541Z,100722.38
2022-10-22T09:27:14.766Z,100708.78
2022-10-22T09:29:47.261Z,100729.41
2022-10-22T09:32:17.550Z,100720.03
2022-10-22T09:34:49.362Z,100706.28
2022-10-22T09:37:27.560Z,100730.25
2022-10-22T09:39:59.087Z,100730.25
2022-10-22T09:42:29.098Z,100731.09
2022-10-22T09:45:02.213Z,100720.75
2022-10-22T09:47:43.234Z,100741.25
2022-10-22T09:50:31.144Z,100738.63
2022-10-22T09:53:14.576Z,100731.78
2022-10-22T09:55:45.504Z,100724.91
2022-10-22T09:58:17.051Z,100737.75
2022-10-22T10:00:51.114Z,100726.47
2022-10-22T10:03:24.469Z,100740.13
2022-10-22T10:06:00.054Z,100748.66
2022-10-22T10:08:35.924Z,100731.63
2022-10-22T10:11:12.146Z,100757.38
2022-10-22T10:13:52.558Z,100747.78
2022-10-22T10:16:34.433Z,100761.38
2022-10-22T10:19:30.031Z,100751.00
2022-10-22T10:22:12.452Z,100739.19
2022-10-22T10:24:58.298Z,100766.44
2022-10-22T10:27:33.877Z,100764.53
2022-10-22T10:30:12.828Z,100744.72
2022-10-22T10:33:04.851Z,100757.66
2022-10-22T10:35:45.988Z,100778.44
2022-10-22T10:38:34.784Z,100766.53
2022-10-22T10:41:18.790Z,100776.75
2022-10-22T10:44:16.018Z,100772.59
2022-10-22T10:46:58.124Z,100776.00
2022-10-22T10:49:29.924Z,100764.91
2022-10-22T10:52:09.329Z,100758.06
2022-10-22T10:54:48.610Z,100776.19
2022-10-22T10:57:33.829Z,100763.31
2022-10-22T11:00:09.036Z,100728.16
2022-10-22T11:03:12.681Z,100765.00
2022-10-22T11:05:45.035Z,100780.41
2022-10-22T11:08:21.576Z,100790.53
2022-10-22T11:10:55.368Z,100788.75
2022-10-22T11:13:33.525Z,100788.81
2022-10-22T11:16:08.563Z,100784.56
2022-10-22T11:18:42.171Z,100799.03
2022-10-22T11:21:25.542Z,100784.50
2022-10-22T11:24:03.489Z,100787.03
2022-10-22T11:26:42.023Z,100788.66
2022-10-22T11:29:21.083Z,100781.88
2022-10-22T11:31:51.458Z,100781.78
2022-10-22T11:34:34.153Z,100796.09
2022-10-22T11:37:05.613Z,100792.59
2022-10-22T11:39:42.037Z,100800.28
2022-10-22T11:42:15.116Z,100792.53
2022-10-22T11:45:03.408Z,100782.97
2022-10-22T11:47:37.232Z,100797.47
2022-10-22T11:50:22.847Z,100788.88
2022-10-22T11:53:02.844Z,100794.97
2022-10-22T11:55:48.321Z,100791.53
2022-10-22T11:58:39.397Z,100800.09
2022-10-22T12:01:31.216Z,100789.69
2022-10-22T12:04:22.017Z,100785.22
2022-10-22T12:07:00.491Z,100790.28
2022-10-22T12:09:33.559Z,100770.63
2022-10-22T12:12:18.045Z,100772.28
2022-10-22T12:14:59.411Z,100792.59
2022-10-22T12:17:32.391Z,100776.16
2022-10-22T12:20:05.102Z,100796.75
2022-10-22T12:22:37.566Z,100796.72
2022-10-22T12:25:20.084Z,100795.28
2022-10-22T12:27:54.907Z,100789.38
2022-10-22T12:30:27.070Z,100786.94
2022-10-22T12:33:02.447Z,100768.22
2022-10-22T12:35:35.666Z,100781.25
2022-10-22T12:38:15.555Z,100778.06
2022-10-22T12:40:48.722Z,100793.50
2022-10-22T12:43:21.204Z,100786.63
2022-10-22T12:45:53.328Z,100798.38
2022-10-22T12:48:28.143Z,100788.88
2022-10-22T12:51:01.226Z,100795.72
2022-10-22T12:53:35.002Z,100796.72
2022-10-22T12:56:08.525Z,100794.06
2022-10-22T12:58:42.606Z,100761.16
2022-10-22T13:01:14.264Z,100766.94
2022-10-22T13:03:50.383Z,100790.81
2022-10-22T13:06:28.604Z,100799.56
2022-10-22T13:09:09.134Z,100797.25
2022-10-22T13:11:42.621Z,100772.69
2022-10-22T13:14:22.670Z,100790.94
2022-10-22T13:17:10.815Z,100750.81
2022-10-22T13:20:05.389Z,100805.56
2022-10-22T13:22:37.832Z,100803.75
2022-10-22T13:25:23.855Z,100775.56
2022-10-22T13:27:56.085Z,100804.59
2022-10-22T13:30:28.727Z,100797.88
2022-10-22T13:33:01.455Z,100803.84
2022-10-22T13:35:36.731Z,100815.03
2022-10-22T13:38:16.794Z,100809.69
2022-10-22T13:40:46.543Z,100807.03
2022-10-22T13:43:17.024Z,100798.56
2022-10-22T13:45:48.159Z,100797.75
2022-10-22T13:48:21.817Z,100800.28
2022-10-22T13:50:55.561Z,100758.34
2022-10-22T13:53:28.295Z,100811.47
2022-10-22T13:55:58.884Z,100807.31
2022-10-22T13:58:28.655Z,100795.34
2022-10-22T14:01:02.593Z,100810.91
2022-10-22T14:03:37.261Z,100811.81
2022-10-22T14:06:16.027Z,100796.41
2022-10-22T14:08:48.430Z,100819.53
2022-10-22T14:11:18.318Z,100820.63
2022-10-22T14:13:48.167Z,100813.88
2022-10-22T14:16:22.919Z,100818.22
2022-10-22T14:18:53.813Z,100826.75
2022-10-22T14:21:26.496Z,100817.31
2022-10-22T14:23:56.303Z,100835.25
2022-10-22T14:26:30.306Z,100840.28
2022-10-22T14:29:09.324Z,100811.97
2022-10-22T14:31:42.667Z,100828.25
2022-10-22T14:34:13.754Z,100841.09
2022-10-22T14:36:46.374Z,100835.91
2022-10-22T14:39:17.817Z,100839.41
2022-10-22T14:41:47.754Z,100823.19
2022-10-22T14:44:18.556Z,100851.63
2022-10-22T14:46:48.402Z,100849.91
2022-10-22T14:49:19.179Z,100859.41
2022-10-22T14:51:52.974Z,100856.84
2022-10-22T14:54:23.807Z,100848.31
2022-10-22T14:56:54.609Z,100853.38
2022-10-22T14:59:25.430Z,100809.75
2022-10-22T15:01:56.325Z,100872.38
2022-10-22T15:04:28.193Z,100865.72
2022-10-22T15:07:01.561Z,100883.69
2022-10-22T15:09:31.330Z,100852.03
2022-10-22T15:12:01.158Z,100893.34
2022-10-22T15:14:31.035Z,100894.22
2022-10-22T15:17:02.268Z,100848.81
2022-10-22T15:19:33.460Z,100897.75
2022-10-22T15:22:06.991Z,100900.31
2022-10-22T15:24:38.155Z,100872.06
2022-10-22T15:27:10.075Z,100895.22
2022-10-22T15:29:40.886Z,100908.94
2022-10-22T15:32:12.933Z,100908.97
2022-10-22T15:34:43.988Z,100905.56
2022-10-22T15:37:17.345Z,100893.53
2022-10-22T15:39:48.151Z,100891.81
2022-10-22T15:42:19.668Z,100902.13
2022-10-22T15:44:50.462Z,100824.94
2022-10-22T15:47:21.269Z,100913.25
2022-10-22T15:49:53.129Z,100900.44
2022-10-22T15:52:26.631Z,100885.88
2022-10-22T15:54:57.741Z,100927.09
2022-10-22T15:57:28.606Z,100908.22
2022-10-22T15:59:58.403Z,100881.66
2022-10-22T16:02:29.610Z,100897.94
2022-10-22T16:05:00.963Z,100930.53
2022-10-22T16:07:34.517Z,100928.81
2022-10-22T16:10:07.630Z,100897.91
2022-10-22T16:12:41.001Z,100933.94
2022-10-22T16:15:13.219Z,100928.78
2022-10-22T16:17:45.026Z,100921.94
2022-10-22T16:20:15.869Z,100920.19
2022-10-22T16:22:52.409Z,100928.81
2022-10-22T16:25:23.177Z,100933.09
2022-10-22T16:27:54.610Z,100929.66
2022-10-22T16:30:24.423Z,100944.25
2022-10-22T16:32:54.231Z,100909.06
2022-10-22T16:35:26.005Z,100933.94
2022-10-22T16:37:58.702Z,100924.50
2022-10-22T16:40:29.220Z,100941.66
2022-10-22T16:42:59.019Z,100935.66
2022-10-22T16:45:29.799Z,100941.69
2022-10-22T16:48:00.596Z,100944.28
2022-10-22T16:50:31.462Z,100879.06
2022-10-22T16:53:03.759Z,100946.91
2022-10-22T16:55:33.560Z,100945.22
2022-10-22T16:58:07.299Z,100954.63
2022-10-22T17:00:39.907Z,100956.34
2022-10-22T17:03:10.149Z,100960.69
2022-10-22T17:05:40.816Z,100952.06
2022-10-22T17:08:14.566Z,100962.38
2022-10-22T17:10:45.333Z,100975.28
2022-10-22T17:13:16.122Z,100968.38
2022-10-22T17:15:45.980Z,100983.00
2022-10-22T17:18:17.204Z,100982.13
2022-10-22T17:20:48.046Z,100983.00
2022-10-22T17:23:20.424Z,100976.97
2022-10-22T17:25:50.443Z,100973.53
2022-10-22T17:28:21.284Z,100990.72
2022-10-22T17:30:55.296Z,100943.50
2022-10-22T17:33:26.964Z,100989.84
2022-10-22T17:35:58.164Z,100920.28
2022-10-22T17:38:31.729Z,100995.88
2022-10-22T17:41:05.706Z,100999.28
2022-10-22T17:43:37.791Z,101007.00
2022-10-22T17:46:10.782Z,100993.25
2022-10-22T17:48:40.823Z,100991.50
2022-10-22T17:51:13.444Z,101002.66
2022-10-22T17:53:46.733Z,100959.69
2022-10-22T17:56:20.265Z,101005.22
2022-10-22T17:58:55.527Z,101000.91
2022-10-22T18:01:34.293Z,101012.00
2022-10-22T18:04:09.497Z,101018.00
2022-10-22T18:06:40.119Z,101004.19
2022-10-22T18:09:18.754Z,101004.22
2022-10-22T18:11:50.048Z,100985.25
2022-10-22T18:14:20.943Z,101018.78
2022-10-22T18:16:54.747Z,101010.16
2022-10-22T18:19:26.262Z,101012.66
2022-10-22T18:21:56.769Z,101031.59
2022-10-22T18:24:31.946Z,100998.94
2022-10-22T18:27:04.345Z,101026.44
2022-10-22T18:29:34.894Z,101016.97
2022-10-22T18:32:12.137Z,100994.56
2022-10-22T18:34:43.616Z,101022.88
2022-10-22T18:37:15.286Z,101014.28
2022-10-22T18:39:49.756Z,101031.31
2022-10-22T18:42:19.681Z,101034.66
2022-10-22T18:44:50.468Z,101040.66
2022-10-22T18:47:21.515Z,101037.19
2022-10-22T18:49:52.360Z,101042.38
2022-10-22T18:52:23.243Z,101039.75
2022-10-22T18:54:57.664Z,101049.22
2022-10-22T18:57:28.671Z,101012.16
2022-10-22T18:59:59.496Z,101048.22
2022-10-22T19:02:30.073Z,101044.78
2022-10-22T19:05:00.890Z,101041.34
2022-10-22T19:07:31.827Z,101025.84
2022-10-22T19:10:05.634Z,101051.66
2022-10-22T19:12:36.667Z,101044.72
2022-10-22T19:15:08.901Z,101031.78
2022-10-22T19:17:40.062Z,101039.56
2022-10-22T19:20:12.489Z,101049.88
2022-10-22T19:22:43.296Z,101024.91
2022-10-22T19:25:16.050Z,101030.81
2022-10-22T19:27:47.555Z,101034.97
2022-10-22T19:30:19.254Z,101046.91
2022-10-22T19:32:50.100Z,101025.41
2022-10-22T19:35:21.377Z,101054.59
2022-10-22T19:37:52.274Z,100997.84
2022-10-22T19:40:28.708Z,101036.47
2022-10-22T19:42:59.521Z,101036.50
2022-10-22T19:45:30.344Z,101022.63
2022-10-22T19:48:01.156Z,101061.34
2022-10-22T19:50:31.008Z,101060.31
2022-10-22T19:53:01.830Z,101064.53
2022-10-22T19:55:35.285Z,101062.81
2022-10-22T19:58:06.078Z,101032.66
2022-10-22T20:00:38.550Z,101054.19
2022-10-22T20:03:09.800Z,101069.69
2022-10-22T20:05:42.694Z,101031.69
2022-10-22T20:08:14.369Z,101064.22
2022-10-22T20:10:54.160Z,101060.88
2022-10-22T20:13:25.012Z,101060.00
2022-10-22T20:15:55.944Z,101064.34
2022-10-22T20:18:26.771Z,101075.59
2022-10-22T20:20:57.733Z,101043.81
2022-10-22T20:23:27.616Z,101074.91
2022-10-22T20:26:01.152Z,101079.22
2022-10-22T20:28:31.966Z,101080.91
2022-10-22T20:31:02.876Z,101074.91
2022-10-22T20:33:34.679Z,101074.81
2022-10-22T20:36:07.723Z,101058.44
2022-10-22T20:38:38.864Z,101084.25
2022-10-22T20:41:14.576Z,101085.09
2022-10-22T20:43:47.155Z,101072.19
2022-10-22T20:46:20.970Z,101079.91
2022-10-22T20:48:51.378Z,101075.56
2022-10-22T20:51:23.630Z,101079.88
2022-10-22T20:53:54.444Z,101073.88
2022-10-22T20:56:28.506Z,101079.00
2022-10-22T20:59:08.265Z,101023.88
2022-10-22T21:01:42.291Z,101059.13
2022-10-22T21:04:13.111Z,101047.88
2022-10-22T21:06:44.111Z,101058.25
2022-10-22T21:09:17.847Z,101054.81
2022-10-22T21:11:51.442Z,101075.44
2022-10-22T21:14:23.279Z,101056.44
2022-10-22T21:16:54.514Z,101057.28
2022-10-22T21:19:26.014Z,101067.56
2022-10-22T21:21:56.911Z,101069.22
2022-10-22T21:24:27.774Z,101072.63
2022-10-22T21:27:01.183Z,101074.28
2022-10-22T21:29:33.242Z,101062.19
2022-10-22T21:32:04.105Z,101071.72
2022-10-22T21:34:38.245Z,101073.44
2022-10-22T21:37:09.939Z,101077.66
2022-10-22T21:39:42.159Z,101074.25
2022-10-22T21:42:17.840Z,101043.22
2022-10-22T21:44:47.664Z,101026.75
2022-10-22T21:47:18.518Z,101062.16
2022-10-22T21:49:49.443Z,101051.91
2022-10-22T21:52:20.329Z,101031.97
2022-10-22T21:54:56.024Z,101061.34
2022-10-22T21:57:29.335Z,101061.28
2022-10-22T22:00:00.050Z,101058.56
2022-10-22T22:02:33.746Z,101073.28
2022-10-22T22:05:04.565Z,101034.38
2022-10-22T22:07:35.619Z,101076.66
2022-10-22T22:10:07.401Z,101055.91
2022-10-22T22:12:41.105Z,101047.28
2022-10-22T22:15:16.233Z,101072.22
2022-10-22T22:17:47.129Z,101055.75
2022-10-22T22:20:18.146Z,101066.22
2022-10-22T22:22:48.967Z,101063.66
2022-10-22T22:25:20.073Z,101067.84
2022-10-22T22:27:53.568Z,101081.59
2022-10-22T22:30:25.095Z,101061.78
2022-10-22T22:32:55.936Z,101062.59
2022-10-22T22:35:25.851Z,101072.88
2022-10-22T22:37:56.666Z,101065.19
2022-10-22T22:40:29.213Z,101071.13
2022-10-22T22:43:04.870Z,101075.38
2022-10-22T22:45:35.628Z,101078.69
2022-10-22T22:48:05.491Z,101040.72
2022-10-22T22:50:35.306Z,101084.63
2022-10-22T22:53:05.064Z,101081.16
2022-10-22T22:55:34.800Z,101075.97
2022-10-22T22:58:07.175Z,101081.28
2022-10-22T23:00:36.945Z,101082.91
2022-10-22T23:03:06.995Z,101076.06
2022-10-22T23:05:39.285Z,101062.28
2022-10-22T23:08:09.164Z,101065.69
2022-10-22T23:10:38.904Z,101076.00
2022-10-22T23:13:11.234Z,101065.78
2022-10-22T23:15:42.403Z,101070.91
2022-10-22T23:18:12.192Z,101045.06
2022-10-22T23:20:41.963Z,101068.28
2022-10-22T23:23:11.697Z,101071.72
2022-10-22T23:25:41.526Z,101071.66
2022-10-22T23:28:13.965Z,101048.41
2022-10-22T23:30:46.989Z,101063.97
2022-10-22T23:33:16.710Z,101070.06
2022-10-22T23:35:46.614Z,101070.13
2022-10-22T23:38:16.624Z,101049.44
2022-10-22T23:40:46.420Z,101056.50
2022-10-22T23:43:18.831Z,101058.13
2022-10-22T23:45:48.598Z,101053.91
2022-10-22T23:48:18.380Z,101049.53
2022-10-22T23:50:48.254Z,101052.22
2022-10-22T23:53:18.586Z,101056.56
2022-10-22T23:55:48.444Z,101019.53
2022-10-22T23:58:20.869Z,101054.06
